Time;durP1;ratioP1;P1;durP2;ratioP2;P2;SDS_P1;SDS_P2;PMS_P1;PMS_P2;Temp;Humidity;BMP_temperature;BMP_pressure;BME280_temperature;BME280_humidity;BME280_pressure;Samples;Min_cycle;Max_cycle;Signal;HPM_P1;HPM_P2
2024/04/25 00:04:55;;;;;;;33.23;19.17;;;;;;;7.72;100.00;99595.86;5024459;57;1138469;-80
2024/04/25 00:10:01;;;;;;;43.98;24.95;;;;;;;7.60;100.00;99589.80;5025113;57;1138670;-79
2024/04/25 00:15:07;;;;;;;59.77;31.80;;;;;;;7.63;100.00;99582.14;5044499;57;1138985;-80
2024/04/25 00:20:12;;;;;;;38.10;22.57;;;;;;;7.63;100.00;99579.03;5025195;57;1138417;-80
2024/04/25 00:25:18;;;;;;;30.33;18.13;;;;;;;7.60;100.00;99581.91;5025028;57;1138510;-80
2024/04/25 00:30:24;;;;;;;71.90;23.03;;;;;;;7.55;100.00;99581.42;5045274;56;1138580;-80
2024/04/25 00:35:29;;;;;;;48.40;21.60;;;;;;;7.51;100.00;99577.84;5024876;57;1140980;-80
2024/04/25 00:40:35;;;;;;;43.20;21.17;;;;;;;7.48;100.00;99572.36;5024954;56;1140887;-81
2024/04/25 00:45:40;;;;;;;46.80;23.13;;;;;;;7.48;100.00;99574.16;5044179;57;1140766;-80
2024/04/25 00:50:47;;;;;;;37.58;21.62;;;;;;;7.47;100.00;99579.06;5024985;56;1140854;-80
2024/04/25 00:55:54;;;;;;;37.67;22.07;;;;;;;7.41;100.00;99573.32;5024822;56;1138949;-80
2024/04/25 01:01:03;;;;;;;38.47;22.77;;;;;;;7.35;100.00;99576.42;5025779;56;1138542;-80
2024/04/25 01:06:09;;;;;;;43.37;22.00;;;;;;;7.26;100.00;99574.53;5044990;57;1138676;-80
2024/04/25 01:11:15;;;;;;;51.73;24.25;;;;;;;7.13;100.00;99583.52;5025469;57;1138472;-80
2024/04/25 01:16:21;;;;;;;48.77;24.33;;;;;;;6.96;100.00;99575.63;5025418;57;1138380;-80
2024/04/25 01:21:27;;;;;;;43.43;23.53;;;;;;;6.84;100.00;99576.58;5042273;57;1138577;-79
2024/04/25 01:26:33;;;;;;;43.70;20.57;;;;;;;6.75;100.00;99568.91;5025557;56;1138798;-80
2024/04/25 01:31:40;;;;;;;30.80;18.33;;;;;;;6.66;100.00;99563.05;5025845;57;1138503;-79
2024/04/25 01:36:46;;;;;;;34.33;18.20;;;;;;;6.58;100.00;99561.47;5045636;57;1138682;-80
2024/04/25 01:41:51;;;;;;;25.20;15.47;;;;;;;6.55;100.00;99559.94;5025538;57;1140807;-81
2024/04/25 01:46:57;;;;;;;28.60;16.50;;;;;;;6.51;100.00;99558.50;5062174;56;1140481;-80
2024/04/25 01:52:02;;;;;;;34.70;18.10;;;;;;;6.46;100.00;99566.35;5084423;56;1140660;-80
2024/04/25 01:57:08;;;;;;;36.40;19.50;;;;;;;6.34;100.00;99563.70;5045080;57;1139204;-80
2024/04/25 02:02:13;;;;;;;35.33;19.30;;;;;;;6.21;100.00;99563.44;5025235;56;1138855;-80
2024/04/25 02:07:19;;;;;;;29.47;18.20;;;;;;;6.04;100.00;99559.44;5025809;56;1138640;-79
2024/04/25 02:12:24;;;;;;;28.73;17.50;;;;;;;5.78;100.00;99566.58;5045059;57;1138914;-80
2024/04/25 02:17:30;;;;;;;31.53;18.47;;;;;;;5.61;100.00;99556.47;5025926;55;1138638;-79
2024/04/25 02:27:48;;;;;;;30.77;17.42;;;;;;;5.46;100.00;99550.55;5025347;57;1138762;-80
2024/04/25 02:32:54;;;;;;;36.57;18.60;;;;;;;5.54;100.00;99551.29;5026056;57;1140978;-80
2024/04/25 02:37:59;;;;;;;30.70;18.05;;;;;;;5.57;100.00;99555.84;5025452;57;1140578;-80
2024/04/25 02:43:05;;;;;;;29.13;19.33;;;;;;;5.57;100.00;99560.26;5045372;57;1138661;-80
2024/04/25 02:48:11;;;;;;;35.97;17.63;;;;;;;5.59;100.00;99559.67;5025594;56;1139328;-79
2024/04/25 02:53:16;;;;;;;30.37;17.93;;;;;;;5.37;100.00;99559.05;5025558;55;1138876;-80
2024/04/25 02:58:22;;;;;;;27.23;17.70;;;;;;;5.21;100.00;99563.71;5045211;56;1138691;-80
2024/04/25 03:03:28;;;;;;;29.37;17.23;;;;;;;5.05;100.00;99561.33;5025306;57;1138734;-80
2024/04/25 03:08:34;;;;;;;25.77;14.13;;;;;;;5.07;100.00;99559.44;5025078;57;1138522;-80
2024/04/25 03:13:40;;;;;;;27.90;15.78;;;;;;;4.89;100.00;99554.17;5059334;56;1138769;-81
2024/04/25 03:18:46;;;;;;;36.30;20.27;;;;;;;4.83;100.00;99554.62;5053083;56;1142487;-81
2024/04/25 03:23:51;;;;;;;35.13;18.57;;;;;;;4.88;100.00;99553.84;5054910;56;1138954;-80
2024/04/25 03:28:57;;;;;;;30.97;19.13;;;;;;;4.88;100.00;99561.70;5055414;56;1138779;-79
2024/04/25 03:34:02;;;;;;;24.30;15.97;;;;;;;4.87;100.00;99563.95;5075146;56;1138552;-79
2024/04/25 03:39:08;;;;;;;25.43;15.97;;;;;;;4.72;100.00;99567.63;5055123;56;1138454;-80
2024/04/25 03:44:14;;;;;;;27.67;14.83;;;;;;;4.73;100.00;99557.52;5058989;56;1138997;-80
2024/04/25 03:49:19;;;;;;;30.70;16.97;;;;;;;4.75;100.00;99563.45;5074816;57;1138845;-80
2024/04/25 03:54:26;;;;;;;22.47;14.93;;;;;;;4.77;100.00;99568.97;5078939;55;1138717;-80
2024/04/25 03:59:31;;;;;;;27.07;14.70;;;;;;;4.88;100.00;99570.39;5105297;56;1138601;-80
2024/04/25 04:04:37;;;;;;;38.70;18.13;;;;;;;4.95;100.00;99564.23;5075131;56;1140732;-78
2024/04/25 04:09:42;;;;;;;28.27;16.53;;;;;;;5.06;100.00;99561.70;5055179;56;1140713;-77
2024/04/25 04:14:48;;;;;;;35.35;18.05;;;;;;;5.05;100.00;99564.42;5053204;56;1138598;-78
2024/04/25 04:19:56;;;;;;;32.78;18.68;;;;;;;5.05;100.00;99567.88;4980681;57;1138872;-79
2024/04/25 04:25:01;;;;;;;71.00;28.03;;;;;;;5.04;100.00;99558.84;4983155;57;1138689;-78
2024/04/25 04:30:07;;;;;;;133.47;63.83;;;;;;;5.00;100.00;99567.86;4964404;57;1138587;-79
2024/04/25 04:35:13;;;;;;;66.23;32.43;;;;;;;4.96;100.00;99572.47;4963810;57;1140591;-79
2024/04/25 04:40:18;;;;;;;70.23;32.37;;;;;;;5.00;100.00;99577.87;4993614;56;1140975;-79
2024/04/25 04:45:25;;;;;;;40.37;22.37;;;;;;;5.14;100.00;99574.28;5015407;56;1138870;-79
2024/04/25 04:50:30;;;;;;;34.67;18.83;;;;;;;5.22;100.00;99575.40;5015833;56;1138508;-79
2024/04/25 04:55:36;;;;;;;30.10;18.90;;;;;;;5.18;100.00;99583.14;5034733;56;1138647;-79
2024/04/25 05:00:42;;;;;;;33.78;18.35;;;;;;;5.16;100.00;99591.58;5031064;56;1138576;-79
2024/04/25 05:05:48;;;;;;;24.83;16.20;;;;;;;5.17;100.00;99590.63;4991784;57;1138556;-79
2024/04/25 05:10:53;;;;;;;33.75;19.15;;;;;;;5.15;100.00;99593.83;5061512;56;1140917;-80
2024/04/25 05:15:59;;;;;;;38.77;23.80;;;;;;;5.12;100.00;99589.27;5098776;56;1138755;-78
2024/04/25 05:21:05;;;;;;;37.10;21.37;;;;;;;5.22;100.00;99587.20;5106903;56;1138578;-79
2024/04/25 05:26:13;;;;;;;32.27;19.13;;;;;;;5.33;100.00;99605.28;5097826;56;1139143;-79
2024/04/25 05:31:18;;;;;;;39.43;19.87;;;;;;;5.32;100.00;99591.34;5107888;56;1138762;-79
2024/04/25 05:36:24;;;;;;;38.60;20.27;;;;;;;5.38;100.00;99597.44;5098910;56;1140970;-78
2024/04/25 05:41:29;;;;;;;31.33;18.83;;;;;;;5.53;100.00;99592.41;5074415;56;1140434;-78
2024/04/25 05:46:35;;;;;;;36.70;21.03;;;;;;;5.64;100.00;99596.44;5054375;56;1138544;-79
2024/04/25 05:51:40;;;;;;;37.87;21.63;;;;;;;5.61;100.00;99602.38;5055532;56;1138630;-81
2024/04/25 05:56:46;;;;;;;33.90;21.60;;;;;;;5.62;100.00;99606.20;5106903;56;1138612;-80
2024/04/25 06:01:51;;;;;;;34.87;19.37;;;;;;;5.65;100.00;99609.89;5097909;56;1138744;-80
2024/04/25 06:06:57;;;;;;;34.50;18.13;;;;;;;5.70;100.00;99610.05;5094942;56;1138487;-80
2024/04/25 06:12:02;;;;;;;32.87;18.00;;;;;;;5.76;100.00;99613.55;5104155;55;1140930;-80
2024/04/25 06:17:08;;;;;;;33.63;18.90;;;;;;;5.84;100.00;99621.22;5135248;56;1140686;-80
2024/04/25 06:22:14;;;;;;;31.50;19.27;;;;;;;5.94;100.00;99618.34;5076978;56;1140806;-84
2024/04/25 06:27:19;;;;;;;30.80;17.80;;;;;;;6.01;100.00;99620.02;5026447;57;1138438;-81
2024/04/25 06:32:25;;;;;;;26.50;15.97;;;;;;;6.01;100.00;99620.02;5049447;56;1138742;-82
2024/04/25 06:37:31;;;;;;;25.70;16.37;;;;;;;6.03;100.00;99631.73;5015573;56;1140727;-81
2024/04/25 06:42:36;;;;;;;25.73;16.83;;;;;;;6.00;100.00;99628.84;5015019;56;1140799;-79
2024/04/25 06:47:42;;;;;;;23.50;15.13;;;;;;;5.93;100.00;99629.78;5040950;57;1138355;-79
2024/04/25 06:52:48;;;;;;;26.97;17.73;;;;;;;5.91;100.00;99636.92;5066336;56;1138800;-79
2024/04/25 06:57:53;;;;;;;22.55;15.48;;;;;;;5.96;100.00;99642.66;5094409;56;1140808;-80
2024/04/25 07:02:59;;;;;;;21.77;14.70;;;;;;;5.96;100.00;99642.66;5099112;56;1138638;-80
2024/04/25 07:08:05;;;;;;;24.57;16.23;;;;;;;6.00;100.00;99655.09;5119498;56;1138735;-81
2024/04/25 07:13:10;;;;;;;24.87;16.73;;;;;;;6.02;100.00;99654.98;5099157;56;1140721;-79
2024/04/25 07:18:16;;;;;;;25.53;16.00;;;;;;;6.01;100.00;99658.08;5087561;56;1138640;-80
2024/04/25 07:23:22;;;;;;;26.30;12.95;;;;;;;6.07;100.00;99652.88;5134490;56;1138659;-78
2024/04/25 07:28:29;;;;;;;23.43;14.90;;;;;;;6.23;100.00;99660.83;5128420;56;1140613;-80
2024/04/25 07:33:34;;;;;;;26.40;14.07;;;;;;;6.33;100.00;99668.39;5054745;56;1141508;-78
2024/04/25 07:38:40;;;;;;;25.73;14.80;;;;;;;6.44;100.00;99673.31;5074738;56;1138501;-80
2024/04/25 07:43:45;;;;;;;20.37;12.80;;;;;;;6.49;100.00;99678.59;5035220;57;1140969;-80
2024/04/25 07:48:51;;;;;;;19.30;10.93;;;;;;;6.46;100.00;99689.80;5054307;56;1138460;-79
2024/04/25 07:53:56;;;;;;;11.80;7.25;;;;;;;6.25;100.00;99693.55;5055076;56;1138789;-78
2024/04/25 07:59:03;;;;;;;10.53;8.73;;;;;;;6.11;100.00;99695.02;5147550;56;1138836;-82
2024/04/25 08:04:10;;;;;;;12.97;8.97;;;;;;;6.12;100.00;99683.55;5108686;56;1136733;-80
2024/04/25 08:09:15;;;;;;;17.37;11.40;;;;;;;6.22;100.00;99680.64;5108991;56;1136544;-82
2024/04/25 08:14:21;;;;;;;11.17;7.83;;;;;;;6.31;100.00;99668.97;5126944;56;1140855;-78
2024/04/25 08:19:27;;;;;;;9.30;7.23;;;;;;;6.48;100.00;99668.20;5108031;56;1138665;-79
2024/04/25 08:24:32;;;;;;;17.45;9.10;;;;;;;6.66;100.00;99665.05;5101384;56;1136727;-79
2024/04/25 08:29:38;;;;;;;8.40;7.13;;;;;;;6.88;100.00;99672.13;5035060;56;1138806;-79
2024/04/25 08:34:44;;;;;;;7.17;6.17;;;;;;;7.21;100.00;99663.94;5015552;56;1136918;-79
2024/04/25 08:39:49;;;;;;;5.45;4.92;;;;;;;7.75;100.00;99664.89;5015081;57;1136657;-78
2024/04/25 08:44:56;;;;;;;6.62;5.58;;;;;;;8.21;100.00;99661.19;5025082;56;1136633;-80
2024/04/25 08:50:04;;;;;;;20.08;10.95;;;;;;;8.57;100.00;99655.19;5082593;56;1136273;-80
2024/04/25 08:55:11;;;;;;;23.47;13.07;;;;;;;8.88;100.00;99660.89;5094972;56;1140786;-79
2024/04/25 09:00:18;;;;;;;12.23;10.37;;;;;;;9.09;100.00;99651.17;5098891;55;1140739;-80
2024/04/25 09:05:25;;;;;;;10.33;7.27;;;;;;;9.27;100.00;99646.12;5119171;55;1140943;-81
2024/04/25 09:10:41;;;;;;;9.97;7.60;;;;;;;9.51;100.00;99642.67;4949923;56;1138591;-79
2024/04/25 09:15:48;;;;;;;26.83;13.20;;;;;;;9.75;100.00;99638.39;4934632;57;1136767;-81
2024/04/25 09:20:54;;;;;;;16.77;9.65;;;;;;;9.72;100.00;99633.85;4967836;57;1140532;-82
2024/04/25 09:25:59;;;;;;;10.15;8.85;;;;;;;9.62;100.00;99625.92;4870840;58;1138541;-78
2024/04/25 09:31:05;;;;;;;14.13;8.30;;;;;;;9.84;100.00;99620.87;4858324;58;1139345;-81
2024/04/25 09:36:13;;;;;;;7.77;6.93;;;;;;;10.07;100.00;99617.52;4899350;57;1138870;-80
2024/04/25 09:41:20;;;;;;;14.17;9.27;;;;;;;10.24;100.00;99608.91;4885405;58;1138612;-82
2024/04/25 09:46:42;;;;;;;13.73;9.23;;;;;;;10.57;100.00;99604.52;4884614;58;1140727;-82
2024/04/25 09:52:02;;;;;;;11.70;9.90;;;;;;;11.00;100.00;99596.55;4901420;58;1140825;-79
2024/04/25 09:57:10;;;;;;;13.37;9.53;;;;;;;10.87;100.00;99602.16;4875965;57;1141168;-81
2024/04/25 10:02:19;;;;;;;18.30;12.00;;;;;;;10.54;100.00;99599.50;4942857;57;1140831;-81
2024/04/25 10:07:25;;;;;;;13.07;9.83;;;;;;;10.23;100.00;99607.76;4949960;58;1142745;-82
2024/04/25 10:12:32;;;;;;;5.87;3.93;;;;;;;9.95;100.00;99629.16;4931027;57;1140545;-79
2024/04/25 10:17:38;;;;;;;6.40;2.20;;;;;;;9.18;100.00;99660.92;4875294;58;1136515;-79
2024/04/25 10:22:43;;;;;;;15.80;7.77;;;;;;;8.62;100.00;99656.48;4814378;58;1134671;-80
2024/04/25 10:28:08;;;;;;;3.57;3.23;;;;;;;8.08;100.00;99623.17;4743126;59;1136763;-79
2024/04/25 10:33:13;;;;;;;23.33;15.43;;;;;;;8.17;100.00;99626.00;4988579;57;1136623;-79
2024/04/25 10:38:23;;;;;;;3.80;3.47;;;;;;;8.54;100.00;99626.00;5015882;56;1140986;-78
2024/04/25 10:43:30;;;;;;;3.45;3.02;;;;;;;8.94;100.00;99624.78;4957011;57;1136634;-78
2024/04/25 10:48:36;;;;;;;4.00;3.70;;;;;;;9.25;100.00;99623.00;4943687;56;1136597;-79
2024/04/25 10:53:41;;;;;;;7.17;5.23;;;;;;;9.46;100.00;99617.19;5019663;56;1136931;-79
2024/04/25 10:58:55;;;;;;;5.40;4.90;;;;;;;9.68;100.00;99601.59;5088839;56;1136631;-80
2024/04/25 11:04:07;;;;;;;9.07;6.77;;;;;;;10.01;100.00;99603.53;5099158;56;1136836;-80
2024/04/25 11:09:13;;;;;;;10.50;5.60;;;;;;;10.33;100.00;99598.84;5099118;56;1138496;-79
2024/04/25 11:14:19;;;;;;;9.53;7.30;;;;;;;10.28;100.00;99593.62;5064197;56;1140624;-80
2024/04/25 11:19:27;;;;;;;14.27;9.37;;;;;;;10.32;100.00;99592.38;5018582;57;1138473;-79
2024/04/25 11:24:32;;;;;;;7.63;5.80;;;;;;;10.25;100.00;99592.57;5032615;57;1140635;-78
2024/04/25 11:29:39;;;;;;;18.60;9.20;;;;;;;10.25;100.00;99601.34;5056224;56;1138575;-79
2024/04/25 11:34:45;;;;;;;10.90;8.27;;;;;;;10.06;100.00;99610.56;5024842;57;1140958;-80
2024/04/25 11:39:53;;;;;;;9.37;7.03;;;;;;;9.57;100.00;99612.77;5025864;57;1140883;-80
2024/04/25 11:44:59;;;;;;;9.13;6.65;;;;;;;9.04;100.00;99615.11;5025975;56;1134865;-79
2024/04/25 11:50:06;;;;;;;8.30;7.12;;;;;;;8.96;100.00;99607.52;5045509;57;1136712;-80
2024/04/25 11:55:12;;;;;;;8.90;6.77;;;;;;;9.09;100.00;99604.17;5025618;57;1136699;-78
2024/04/25 12:00:17;;;;;;;11.17;7.77;;;;;;;9.39;100.00;99600.20;5063250;55;1136265;-79
2024/04/25 12:05:23;;;;;;;8.87;7.47;;;;;;;9.69;100.00;99596.67;5095707;55;1138802;-80
2024/04/25 12:10:30;;;;;;;8.70;7.27;;;;;;;10.04;100.00;99592.70;5061925;56;1136831;-80
2024/04/25 12:15:38;;;;;;;11.63;7.57;;;;;;;10.29;100.00;99593.97;5069044;56;1138679;-80
2024/04/25 12:20:44;;;;;;;9.43;7.53;;;;;;;10.33;100.00;99592.72;5087186;56;1140623;-79
2024/04/25 12:25:50;;;;;;;8.70;7.53;;;;;;;10.34;100.00;99591.75;5124195;56;1138409;-79
2024/04/25 12:30:56;;;;;;;10.98;7.40;;;;;;;10.32;100.00;99604.27;5109652;56;1138589;-81
2024/04/25 12:36:01;;;;;;;11.33;7.03;;;;;;;10.13;100.00;99605.90;5129199;56;1149644;-79
2024/04/25 12:41:07;;;;;;;5.65;4.78;;;;;;;9.94;100.00;99611.64;5118307;56;1140764;-79
2024/04/25 12:46:12;;;;;;;11.30;5.40;;;;;;;9.76;100.00;99623.38;5045192;56;1136509;-80
2024/04/25 12:51:18;;;;;;;23.47;5.73;;;;;;;9.44;100.00;99624.88;5044495;57;1138421;-80
2024/04/25 12:56:24;;;;;;;9.53;2.67;;;;;;;9.11;100.00;99632.58;5065432;57;1136449;-79
2024/04/25 13:01:29;;;;;;;2.53;1.77;;;;;;;8.90;100.00;99607.55;5105200;55;1134200;-80
2024/04/25 13:06:35;;;;;;;5.60;3.77;;;;;;;8.96;100.00;99601.76;5113348;55;1136423;-79
2024/04/25 13:11:41;;;;;;;15.27;4.77;;;;;;;9.32;100.00;99595.61;5065336;57;1136421;-81
2024/04/25 13:16:46;;;;;;;3.40;3.10;;;;;;;9.71;100.00;99584.17;5046275;57;1139009;-79
2024/04/25 13:21:52;;;;;;;3.17;2.83;;;;;;;10.12;100.00;99579.13;5045558;57;1136352;-80
2024/04/25 13:26:57;;;;;;;29.87;22.23;;;;;;;10.55;100.00;99574.73;5046327;57;1138625;-80
2024/04/25 13:32:03;;;;;;;2.98;2.77;;;;;;;10.87;100.00;99569.09;5065597;56;1142616;-80
2024/04/25 13:37:09;;;;;;;13.60;5.23;;;;;;;11.12;100.00;99558.86;5043499;56;1138789;-79
2024/04/25 13:42:15;;;;;;;45.48;24.27;;;;;;;11.34;100.00;99569.05;5043446;56;1141033;-81
2024/04/25 13:47:20;;;;;;;13.00;5.83;;;;;;;11.64;100.00;99571.88;5065024;56;1142707;-79
2024/04/25 13:52:26;;;;;;;9.67;6.03;;;;;;;11.53;100.00;99574.25;5045304;57;1140794;-79
2024/04/25 13:57:31;;;;;;;7.67;4.90;;;;;;;11.37;100.00;99577.19;5045417;57;1138774;-80
2024/04/25 14:02:37;;;;;;;12.90;4.63;;;;;;;11.16;100.00;99582.70;5142852;56;1138545;-80
2024/04/25 14:07:43;;;;;;;10.63;5.27;;;;;;;10.85;100.00;99612.53;5129402;56;1140854;-80
2024/04/25 14:12:49;;;;;;;3.70;1.30;;;;;;;10.28;100.00;99630.62;5129423;56;1140696;-81
2024/04/25 14:17:55;;;;;;;3.00;2.43;;;;;;;9.77;100.00;99648.81;5150386;56;1141833;-80
2024/04/25 14:23:02;;;;;;;7.75;4.67;;;;;;;9.32;100.00;99672.13;5130088;56;1136877;-79
2024/04/25 14:33:31;;;;;;;7.77;4.27;;;;;;;8.89;100.00;99645.42;5087525;56;1134404;-80
2024/04/25 14:38:37;;;;;;;5.73;3.27;;;;;;;8.99;100.00;99631.00;5074021;56;1136697;-81
2024/04/25 14:43:43;;;;;;;3.57;2.20;;;;;;;9.28;100.00;99623.22;5078141;56;1136577;-80
2024/04/25 14:48:48;;;;;;;3.03;2.60;;;;;;;9.55;100.00;99619.49;5090284;56;1136358;-79
2024/04/25 14:53:54;;;;;;;5.80;2.53;;;;;;;9.90;100.00;99604.98;5047779;56;1136393;-79
2024/04/25 14:58:59;;;;;;;6.10;2.37;;;;;;;10.11;100.00;99603.04;5077300;56;1136365;-80
2024/04/25 15:04:05;;;;;;;1.60;1.50;;;;;;;10.34;100.00;99601.00;5025838;56;1138597;-79
2024/04/25 15:09:13;;;;;;;1.50;1.40;;;;;;;10.62;100.00;99592.69;5045028;57;1138792;-79
2024/04/25 15:14:19;;;;;;;2.13;1.97;;;;;;;10.80;100.00;99580.41;5025215;57;1140100;-79
2024/04/25 15:19:24;;;;;;;2.57;2.20;;;;;;;10.74;100.00;99584.45;5027461;56;1138499;-79
2024/04/25 15:24:30;;;;;;;2.23;2.00;;;;;;;10.62;100.00;99580.79;5045343;57;1138807;-79
2024/04/25 15:29:35;;;;;;;4.80;2.30;;;;;;;10.43;100.00;99583.80;5026091;56;1138871;-79
2024/04/25 15:34:41;;;;;;;3.70;2.10;;;;;;;10.50;100.00;99578.31;5029687;56;1138674;-79
2024/04/25 15:39:56;;;;;;;4.50;3.70;;;;;;;10.73;100.00;99569.55;5030663;56;1138703;-82
2024/04/25 15:44:57;;;;;;;5.70;3.20;;;;;;;10.97;100.00;99580.16;5005304;57;1138567;-79
2024/04/25 15:50:02;;;;;;;3.05;1.90;;;;;;;11.17;100.00;99593.63;5039973;57;1138771;-81
2024/04/25 15:55:08;;;;;;;2.53;1.27;;;;;;;11.17;95.33;99597.61;5084709;56;1138649;-82
2024/04/25 16:00:14;;;;;;;2.20;2.00;;;;;;;11.02;91.63;99600.38;5032645;56;1136445;-81
2024/04/25 16:05:20;;;;;;;2.90;2.60;;;;;;;10.85;89.80;99614.69;5078298;56;1136312;-81
2024/04/25 16:10:25;;;;;;;2.97;2.67;;;;;;;10.74;89.87;99609.57;5092416;56;1136630;-81
2024/04/25 16:15:33;;;;;;;2.50;2.30;;;;;;;10.69;89.45;99605.70;4996597;57;1136489;-81
2024/04/25 16:20:38;;;;;;;1.57;1.47;;;;;;;10.62;89.55;99623.09;4996413;57;1136331;-84
2024/04/25 16:25:44;;;;;;;1.53;1.40;;;;;;;10.42;92.55;99613.02;5015961;56;1136360;-84
2024/04/25 16:30:49;;;;;;;2.58;1.02;;;;;;;10.35;96.03;99618.53;4997249;56;1136812;-82
2024/04/25 16:35:57;;;;;;;2.17;1.90;;;;;;;10.38;95.35;99624.87;5017368;57;1136233;-82
2024/04/25 16:41:03;;;;;;;6.43;3.47;;;;;;;10.32;94.62;99624.92;5011243;57;1136803;-81
2024/04/25 16:46:10;;;;;;;218.88;98.55;;;;;;;10.35;94.87;99636.55;5064650;56;1136383;-80
2024/04/25 16:51:16;;;;;;;18.57;9.77;;;;;;;10.31;92.26;99637.79;5110362;55;1142556;-80
2024/04/25 16:56:22;;;;;;;18.63;8.47;;;;;;;10.21;92.64;99638.28;5121706;56;1138863;-80
2024/04/25 17:01:27;;;;;;;43.50;22.63;;;;;;;10.10;91.78;99639.68;5098388;56;1138536;-81
2024/04/25 17:06:33;;;;;;;42.13;18.57;;;;;;;10.09;93.73;99642.80;5044141;57;1140307;-80
2024/04/25 17:11:39;;;;;;;26.30;13.53;;;;;;;10.03;91.71;99671.11;5058666;56;1140725;-81
2024/04/25 17:16:45;;;;;;;26.67;14.80;;;;;;;9.97;93.73;99660.23;5110022;56;1140682;-81
2024/04/25 17:21:51;;;;;;;14.13;7.83;;;;;;;9.87;95.22;99656.27;5106445;56;1138650;-81
2024/04/25 17:26:56;;;;;;;8.27;4.90;;;;;;;9.78;95.76;99671.09;5092398;56;1136745;-80
2024/04/25 17:32:03;;;;;;;3.33;3.00;;;;;;;9.70;96.71;99673.59;5090935;55;1134476;-81
2024/04/25 17:37:10;;;;;;;8.38;4.62;;;;;;;9.53;97.46;99668.45;5133741;56;1134628;-80
2024/04/25 17:42:15;;;;;;;20.37;10.07;;;;;;;9.40;98.89;99686.81;5065832;55;1134471;-81
2024/04/25 17:47:22;;;;;;;19.55;8.38;;;;;;;9.22;100.00;99701.56;5112724;56;1136729;-80
2024/04/25 17:52:27;;;;;;;51.83;23.17;;;;;;;9.07;100.00;99708.49;5065014;56;1236229;-81
2024/04/25 17:57:35;;;;;;;21.10;8.20;;;;;;;8.96;100.00;99715.64;5059748;56;1138767;-81
2024/04/25 18:02:41;;;;;;;10.33;5.77;;;;;;;8.71;100.00;99726.89;5122806;56;1181477;-80
2024/04/25 18:07:46;;;;;;;21.25;5.75;;;;;;;8.71;100.00;99726.89;5149736;56;1174208;-80
2024/04/25 18:12:52;;;;;;;2.30;1.63;;;;;;;8.58;100.00;99743.36;5129504;56;1183303;-80
2024/04/25 18:17:57;;;;;;;15.63;5.63;;;;;;;8.42;100.00;99743.77;5110740;56;1173359;-81
2024/04/25 18:23:03;;;;;;;21.52;6.42;;;;;;;8.32;100.00;99749.91;5046000;56;1137200;-80
2024/04/25 18:28:09;;;;;;;24.73;7.40;;;;;;;8.24;100.00;99750.52;5065255;56;1136733;-79
2024/04/25 18:33:15;;;;;;;20.68;10.55;;;;;;;8.22;100.00;99758.17;5045621;55;1136438;-80
2024/04/25 18:38:20;;;;;;;32.30;15.63;;;;;;;8.15;100.00;99759.61;5045286;57;1138636;-79
2024/04/25 18:43:26;;;;;;;21.07;12.57;;;;;;;8.00;100.00;99771.72;5131608;55;1138659;-78
2024/04/25 18:48:31;;;;;;;17.50;11.47;;;;;;;7.85;100.00;99761.08;5025470;57;1138560;-78
2024/04/25 18:53:37;;;;;;;9.10;6.00;;;;;;;7.74;100.00;99766.34;5047894;56;1236375;-80
2024/04/25 18:58:42;;;;;;;21.50;7.97;;;;;;;7.67;100.00;99776.50;5124909;56;1235444;-79
2024/04/25 19:03:48;;;;;;;38.10;17.27;;;;;;;7.62;100.00;99782.62;5107716;55;1227167;-80
2024/04/25 19:08:54;;;;;;;49.27;22.23;;;;;;;7.61;100.00;99777.47;5103609;55;1240330;-79
2024/04/25 19:14:02;;;;;;;39.67;21.53;;;;;;;7.60;100.00;99788.47;5055911;56;1234291;-80
2024/04/25 19:19:12;;;;;;;27.50;16.90;;;;;;;7.56;100.00;99783.55;5127892;56;1244272;-79
2024/04/25 19:24:20;;;;;;;56.95;25.82;;;;;;;7.51;100.00;99785.69;5105768;56;1251776;-80
2024/04/25 19:29:27;;;;;;;71.93;28.40;;;;;;;7.45;100.00;99788.80;5109531;56;1138816;-78
2024/04/25 19:34:33;;;;;;;37.57;15.97;;;;;;;7.38;100.00;99793.68;5112519;55;1138699;-78
2024/04/25 19:39:38;;;;;;;81.53;34.13;;;;;;;7.37;100.00;99793.31;5102015;56;1246265;-78
2024/04/25 19:44:44;;;;;;;97.30;45.80;;;;;;;7.37;100.00;99792.00;5029504;56;1151262;-79
2024/04/25 19:49:49;;;;;;;95.27;44.00;;;;;;;7.39;100.00;99796.20;5062575;57;1138816;-79
2024/04/25 19:54:55;;;;;;;86.23;39.87;;;;;;;7.37;100.00;99803.36;5046672;56;1138610;-80
2024/04/25 20:00:01;;;;;;;43.60;20.13;;;;;;;7.33;100.00;99803.23;5076339;56;1242415;-80
2024/04/25 20:05:11;;;;;;;33.13;16.03;;;;;;;7.29;100.00;99809.70;5128842;56;1235896;-79
2024/04/25 20:10:16;;;;;;;28.00;12.93;;;;;;;7.28;100.00;99811.13;5141459;56;1138716;-80
2024/04/25 20:15:21;;;;;;;27.10;13.60;;;;;;;7.32;100.00;99817.36;5044937;57;1138617;-79
2024/04/25 20:25:50;;;;;;;20.00;11.40;;;;;;;7.49;100.00;99823.11;5136603;56;1140848;-80
2024/04/25 20:30:56;;;;;;;165.80;92.07;;;;;;;7.57;100.00;99831.28;5129684;56;1141012;-80
2024/04/25 20:36:02;;;;;;;109.93;59.97;;;;;;;7.53;100.00;99833.30;5108941;56;1142764;-81
2024/04/25 20:41:08;;;;;;;148.80;76.33;;;;;;;7.34;100.00;99835.63;5045207;57;1140933;-81
2024/04/25 20:46:24;;;;;;;36.53;21.02;;;;;;;7.23;100.00;99836.92;5066159;56;1140787;-79
2024/04/25 20:51:30;;;;;;;13.13;7.73;;;;;;;7.08;100.00;99838.06;5066604;55;1138680;-79
2024/04/25 20:56:38;;;;;;;35.13;14.85;;;;;;;6.99;100.00;99840.43;5069987;55;1136727;-77
2024/04/25 21:01:44;;;;;;;40.10;19.33;;;;;;;6.97;100.00;99842.80;5127088;56;1138892;-78
2024/04/25 21:06:50;;;;;;;38.60;16.93;;;;;;;6.97;100.00;99847.59;5102244;55;1139197;-78
2024/04/25 21:11:55;;;;;;;44.87;18.87;;;;;;;6.95;100.00;99860.00;5047530;56;1138952;-79
2024/04/25 21:17:01;;;;;;;49.53;25.17;;;;;;;6.79;100.00;99854.18;5079020;56;1138905;-79
2024/04/25 21:22:06;;;;;;;21.27;12.20;;;;;;;6.72;100.00;99859.53;5050520;55;1141011;-79
2024/04/25 21:27:14;;;;;;;29.37;15.72;;;;;;;6.79;100.00;99867.32;5046169;55;1141042;-79
2024/04/25 21:32:19;;;;;;;38.27;17.83;;;;;;;6.87;100.00;99865.47;5048133;55;1140837;-79
2024/04/25 21:37:27;;;;;;;54.07;28.67;;;;;;;6.83;100.00;99866.63;5065390;56;1138735;-79
2024/04/25 21:42:33;;;;;;;44.77;19.60;;;;;;;6.77;100.00;99869.69;5106365;56;1138551;-80
2024/04/25 21:47:38;;;;;;;43.47;23.07;;;;;;;6.72;100.00;99876.61;5087281;56;1138504;-78
2024/04/25 21:52:44;;;;;;;49.50;24.43;;;;;;;6.67;100.00;99874.30;5065815;56;1138464;-77
2024/04/25 21:57:49;;;;;;;46.87;20.33;;;;;;;6.58;100.00;99872.31;5046631;56;1138666;-77
2024/04/25 22:02:57;;;;;;;59.50;27.53;;;;;;;6.47;100.00;99873.56;5109305;55;1138536;-77
2024/04/25 22:08:03;;;;;;;38.53;21.47;;;;;;;6.43;100.00;99867.31;5045874;56;1138981;-77
2024/04/25 22:13:08;;;;;;;42.13;22.55;;;;;;;6.30;100.00;99878.69;5065294;56;1138704;-77
2024/04/25 22:18:14;;;;;;;57.43;23.97;;;;;;;6.22;100.00;99878.40;5045069;57;1138734;-76
2024/04/25 22:23:19;;;;;;;33.33;16.80;;;;;;;6.20;100.00;99872.41;5045388;56;1138599;-77
2024/04/25 22:28:25;;;;;;;28.37;12.83;;;;;;;6.05;100.00;99872.16;5064473;56;1140884;-77
2024/04/25 22:33:31;;;;;;;20.00;11.43;;;;;;;5.92;100.00;99873.96;5065381;56;1140720;-77
2024/04/25 22:38:37;;;;;;;21.10;12.23;;;;;;;5.80;100.00;99871.67;5099351;56;1140751;-77
2024/04/25 22:43:42;;;;;;;20.57;11.20;;;;;;;5.65;100.00;99874.84;5119739;56;1138570;-77
2024/04/25 22:48:48;;;;;;;17.97;10.63;;;;;;;5.57;100.00;99873.69;5099865;56;1138782;-78
2024/04/25 22:53:54;;;;;;;18.73;9.67;;;;;;;5.47;100.00;99878.72;5091497;56;1138622;-77
2024/04/25 22:59:00;;;;;;;18.07;10.27;;;;;;;5.37;100.00;99877.63;5069566;56;1136836;-78
2024/04/25 23:04:05;;;;;;;26.33;10.67;;;;;;;5.37;100.00;99875.01;5046024;56;1142296;-77
2024/04/25 23:09:11;;;;;;;37.00;14.78;;;;;;;5.43;100.00;99872.46;5025951;55;1140661;-78
2024/04/25 23:14:17;;;;;;;44.63;16.10;;;;;;;5.46;100.00;99864.40;5025567;56;1140843;-77
2024/04/25 23:19:23;;;;;;;19.47;10.23;;;;;;;5.51;100.00;99867.53;5045645;56;1140897;-77